createdAt,value
2023-05-22T00:01:49.470Z,52.15
2023-05-22T00:04:21.506Z,52.61
2023-05-22T00:06:49.945Z,52.72
2023-05-22T00:09:17.469Z,53.20
2023-05-22T00:11:45.601Z,52.67
2023-05-22T00:14:16.202Z,53.13
2023-05-22T00:16:44.009Z,52.40
2023-05-22T00:19:16.797Z,52.68
2023-05-22T00:21:44.699Z,52.03
2023-05-22T00:24:12.440Z,51.96
2023-05-22T00:26:39.895Z,51.88
2023-05-22T00:29:07.354Z,51.59
2023-05-22T00:31:34.830Z,51.44
2023-05-22T00:34:02.607Z,51.30
2023-05-22T00:36:30.029Z,51.42
2023-05-22T00:38:57.414Z,51.15
2023-05-22T00:41:24.927Z,51.17
2023-05-22T00:43:52.354Z,51.32
2023-05-22T00:46:25.052Z,51.25
2023-05-22T00:48:53.222Z,51.11
2023-05-22T00:51:22.396Z,50.55
2023-05-22T00:53:50.569Z,50.47
2023-05-22T00:56:19.479Z,50.81
2023-05-22T00:58:46.968Z,50.85
2023-05-22T01:01:15.641Z,50.73
2023-05-22T01:03:46.908Z,51.07
2023-05-22T01:06:15.986Z,50.95
2023-05-22T01:08:45.512Z,50.97
2023-05-22T01:11:35.846Z,50.79
2023-05-22T01:14:11.756Z,50.46
2023-05-22T01:17:00.185Z,50.69
2023-05-22T01:20:07.067Z,50.87
2023-05-22T01:23:16.306Z,50.83
2023-05-22T01:25:53.084Z,50.80
2023-05-22T01:28:45.390Z,51.09
2023-05-22T01:31:17.393Z,50.89
2023-05-22T01:34:00.837Z,51.23
2023-05-22T01:36:35.039Z,50.93
2023-05-22T01:39:06.209Z,51.03
2023-05-22T01:41:34.347Z,50.68
2023-05-22T01:44:02.303Z,50.54
2023-05-22T01:46:31.487Z,50.71
2023-05-22T01:48:59.743Z,50.76
2023-05-22T01:51:42.123Z,50.96
2023-05-22T01:54:37.196Z,50.99
2023-05-22T01:57:12.973Z,50.71
2023-05-22T01:59:48.615Z,51.02
2023-05-22T02:02:20.027Z,50.87
2023-05-22T02:04:55.880Z,50.68
2023-05-22T02:07:27.163Z,50.76
2023-05-22T02:09:57.772Z,51.30
2023-05-22T02:12:25.953Z,51.07
2023-05-22T02:14:53.958Z,51.12
2023-05-22T02:17:22.198Z,51.40
2023-05-22T02:19:49.688Z,51.37
2023-05-22T02:22:17.190Z,51.70
2023-05-22T02:24:48.126Z,51.56
2023-05-22T02:27:17.449Z,52.10
2023-05-22T02:29:44.862Z,52.24
2023-05-22T02:32:12.314Z,52.83
2023-05-22T02:34:39.618Z,52.73
2023-05-22T02:37:16.022Z,52.68
2023-05-22T02:39:43.580Z,53.16
2023-05-22T02:42:13.307Z,53.74
2023-05-22T02:44:41.014Z,53.81
2023-05-22T02:47:08.551Z,54.18
2023-05-22T02:49:36.022Z,55.13
2023-05-22T02:52:04.232Z,55.16
2023-05-22T02:54:31.680Z,55.34
2023-05-22T02:57:03.204Z,55.70
2023-05-22T02:59:31.757Z,56.60
2023-05-22T03:01:59.226Z,56.30
2023-05-22T03:04:26.755Z,56.76
2023-05-22T03:06:54.798Z,57.70
2023-05-22T03:09:22.260Z,57.21
2023-05-22T03:11:51.547Z,57.59
2023-05-22T03:14:19.144Z,57.94
2023-05-22T03:16:49.018Z,58.81
2023-05-22T03:19:17.434Z,58.62
2023-05-22T03:21:44.904Z,59.67
2023-05-22T03:24:13.439Z,59.75
2023-05-22T03:26:42.039Z,59.96
2023-05-22T03:29:14.215Z,61.16
2023-05-22T03:31:42.484Z,61.06
2023-05-22T03:34:13.620Z,62.37
2023-05-22T03:36:45.140Z,62.70
2023-05-22T03:39:18.156Z,62.62
2023-05-22T03:41:54.890Z,62.77
2023-05-22T03:44:24.577Z,62.79
2023-05-22T03:46:53.738Z,62.69
2023-05-22T03:49:21.835Z,63.06
2023-05-22T03:51:49.199Z,63.45
2023-05-22T03:54:17.259Z,64.25
2023-05-22T03:56:44.695Z,64.03
2023-05-22T03:59:12.191Z,63.70
2023-05-22T04:01:40.401Z,62.89
2023-05-22T04:04:09.685Z,62.78
2023-05-22T04:06:43.175Z,62.56
2023-05-22T04:09:13.755Z,62.96
2023-05-22T04:11:42.345Z,61.85
2023-05-22T04:14:10.056Z,62.44
2023-05-22T04:16:37.521Z,62.70
2023-05-22T04:19:05.890Z,63.15
2023-05-22T04:21:34.631Z,62.66
2023-05-22T04:24:07.286Z,62.77
2023-05-22T04:26:36.132Z,63.40
2023-05-22T04:29:03.946Z,64.01
2023-05-22T04:31:32.532Z,63.90
2023-05-22T04:34:00.350Z,65.16
2023-05-22T04:36:28.068Z,66.63
2023-05-22T04:38:55.676Z,66.38
2023-05-22T04:41:26.523Z,66.11
2023-05-22T04:43:54.889Z,65.78
2023-05-22T04:46:22.876Z,65.71
2023-05-22T04:48:51.289Z,65.31
2023-05-22T04:51:18.752Z,66.21
2023-05-22T04:53:47.326Z,65.83
2023-05-22T04:56:18.646Z,65.76
2023-05-22T04:58:53.955Z,65.30
2023-05-22T05:01:23.081Z,65.13
2023-05-22T05:03:51.115Z,63.91
2023-05-22T05:06:21.659Z,63.29
2023-05-22T05:08:50.139Z,64.58
2023-05-22T05:11:17.628Z,63.43
2023-05-22T05:13:45.090Z,63.69
2023-05-22T05:16:12.978Z,63.75
2023-05-22T05:18:40.992Z,62.65
2023-05-22T05:21:08.900Z,61.82
2023-05-22T05:23:36.267Z,61.88
2023-05-22T05:26:04.055Z,61.92
2023-05-22T05:28:31.597Z,62.07
2023-05-22T05:31:02.044Z,62.47
2023-05-22T05:33:47.807Z,62.84
2023-05-22T05:36:27.390Z,61.73
2023-05-22T05:38:56.718Z,61.87
2023-05-22T05:41:24.712Z,61.99
2023-05-22T05:44:00.190Z,60.54
2023-05-22T05:46:35.864Z,60.44
2023-05-22T05:49:12.323Z,61.01
2023-05-22T05:51:41.932Z,61.36
2023-05-22T05:54:11.220Z,59.44
2023-05-22T05:56:39.924Z,59.67
2023-05-22T05:59:07.344Z,60.12
2023-05-22T06:01:38.848Z,60.15
2023-05-22T06:04:12.776Z,60.20
2023-05-22T06:06:42.417Z,62.06
2023-05-22T06:09:10.335Z,62.94
2023-05-22T06:12:01.885Z,61.51
2023-05-22T06:14:30.837Z,61.70
2023-05-22T06:16:59.110Z,61.95
2023-05-22T06:19:27.334Z,62.06
2023-05-22T06:21:55.191Z,62.80
2023-05-22T06:24:23.152Z,64.12
2023-05-22T06:26:51.021Z,63.04
2023-05-22T06:29:18.664Z,63.24
2023-05-22T06:31:47.650Z,62.75
2023-05-22T06:34:18.385Z,63.17
2023-05-22T06:36:46.084Z,64.39
2023-05-22T06:39:14.224Z,63.89
2023-05-22T06:42:00.214Z,63.27
2023-05-22T06:44:44.594Z,61.72
2023-05-22T06:47:11.974Z,61.30
2023-05-22T06:49:40.347Z,62.54
2023-05-22T06:52:07.880Z,61.39
2023-05-22T06:54:35.392Z,60.70
2023-05-22T06:57:03.859Z,59.71
2023-05-22T06:59:32.181Z,58.81
2023-05-22T07:02:05.906Z,58.36
2023-05-22T07:04:49.196Z,57.14
2023-05-22T07:07:23.831Z,55.89
2023-05-22T07:09:51.467Z,56.28
2023-05-22T07:12:20.389Z,53.57
2023-05-22T07:14:47.779Z,52.48
2023-05-22T07:17:15.096Z,52.84
2023-05-22T07:19:45.163Z,53.60
2023-05-22T07:22:12.845Z,52.28
2023-05-22T07:24:41.074Z,48.43
2023-05-22T07:27:09.305Z,49.47
2023-05-22T07:29:38.134Z,50.78
2023-05-22T07:32:07.278Z,50.60
2023-05-22T07:34:35.983Z,49.66
2023-05-22T07:37:09.163Z,45.69
2023-05-22T07:39:36.734Z,47.09
2023-05-22T07:42:06.235Z,47.52
2023-05-22T07:44:38.033Z,45.75
2023-05-22T07:47:06.021Z,46.50
2023-05-22T07:49:34.971Z,44.32
2023-05-22T07:52:02.606Z,44.90
2023-05-22T07:54:30.130Z,44.75
2023-05-22T07:56:58.131Z,43.76
2023-05-22T07:59:30.595Z,42.92
2023-05-22T08:01:59.805Z,43.50
2023-05-22T08:04:27.619Z,42.56
2023-05-22T08:06:55.654Z,43.41
2023-05-22T08:09:23.416Z,41.58
2023-05-22T08:11:50.888Z,42.02
2023-05-22T08:14:18.268Z,41.16
2023-05-22T08:16:45.866Z,39.89
2023-05-22T08:19:13.452Z,39.99
2023-05-22T08:21:40.937Z,41.11
2023-05-22T08:24:08.729Z,40.16
2023-05-22T08:26:36.806Z,40.67
2023-05-22T08:29:04.283Z,41.73
2023-05-22T08:31:34.287Z,41.66
2023-05-22T08:34:06.396Z,40.97
2023-05-22T08:36:34.211Z,39.04
2023-05-22T08:39:02.147Z,38.87
2023-05-22T08:41:30.344Z,39.46
2023-05-22T08:43:57.954Z,39.92
2023-05-22T08:46:29.434Z,39.81
2023-05-22T08:48:58.267Z,39.75
2023-05-22T08:51:31.518Z,41.71
2023-05-22T08:54:00.332Z,41.34
2023-05-22T08:56:29.683Z,41.66
2023-05-22T08:58:59.876Z,39.53
2023-05-22T09:01:29.394Z,40.16
2023-05-22T09:04:01.908Z,41.12
2023-05-22T09:06:30.064Z,41.04
2023-05-22T09:09:01.557Z,42.66
2023-05-22T09:11:29.064Z,40.25
2023-05-22T09:14:08.056Z,39.39
2023-05-22T09:16:47.871Z,39.73
2023-05-22T09:19:16.077Z,41.24
2023-05-22T09:21:44.598Z,40.64
2023-05-22T09:24:12.404Z,41.37
2023-05-22T09:26:40.488Z,41.28
2023-05-22T09:29:08.617Z,40.52
2023-05-22T09:31:44.348Z,39.98
2023-05-22T09:34:17.612Z,39.36
2023-05-22T09:36:46.461Z,38.49
2023-05-22T09:39:14.169Z,39.19
2023-05-22T09:41:41.538Z,39.47
2023-05-22T09:44:13.886Z,38.33
2023-05-22T09:46:46.172Z,38.21
2023-05-22T09:49:16.428Z,37.46
2023-05-22T09:51:47.864Z,37.61
2023-05-22T09:54:17.474Z,37.44
2023-05-22T09:56:50.970Z,37.12
2023-05-22T09:59:26.683Z,35.49
2023-05-22T10:01:54.673Z,36.63
2023-05-22T10:04:23.093Z,36.48
2023-05-22T10:06:52.738Z,38.43
2023-05-22T10:09:31.090Z,39.38
2023-05-22T10:12:04.365Z,38.53
2023-05-22T10:14:34.588Z,38.99
2023-05-22T10:17:04.813Z,38.94
2023-05-22T10:19:33.666Z,38.39
2023-05-22T10:22:01.700Z,37.95
2023-05-22T10:24:30.073Z,38.21
2023-05-22T10:26:57.928Z,37.32
2023-05-22T10:29:33.355Z,36.86
2023-05-22T10:32:18.550Z,37.33
2023-05-22T10:35:02.182Z,37.88
2023-05-22T10:37:52.241Z,38.57
2023-05-22T10:40:28.850Z,39.06
2023-05-22T10:43:00.917Z,40.47
2023-05-22T10:45:29.389Z,41.24
2023-05-22T10:48:06.874Z,39.61
2023-05-22T10:50:35.695Z,38.94
2023-05-22T10:53:24.154Z,39.24
2023-05-22T10:56:02.548Z,39.73
2023-05-22T10:58:32.047Z,37.23
2023-05-22T11:01:09.798Z,37.30
2023-05-22T11:04:13.039Z,37.74
2023-05-22T11:07:06.771Z,38.78
2023-05-22T11:09:43.282Z,38.47
2023-05-22T11:12:24.948Z,39.09
2023-05-22T11:14:57.292Z,40.20
2023-05-22T11:17:27.775Z,41.72
2023-05-22T11:20:06.808Z,40.48
2023-05-22T11:22:41.412Z,40.62
2023-05-22T11:25:17.920Z,39.60
2023-05-22T11:27:47.310Z,40.46
2023-05-22T11:30:16.326Z,38.76
2023-05-22T11:32:45.866Z,39.31
2023-05-22T11:35:18.444Z,36.62
2023-05-22T11:37:46.692Z,37.71
2023-05-22T11:40:18.891Z,38.11
2023-05-22T11:42:46.772Z,38.76
2023-05-22T11:45:15.228Z,39.14
2023-05-22T11:47:43.684Z,39.13
2023-05-22T11:50:22.550Z,39.66
2023-05-22T11:52:59.391Z,37.56
2023-05-22T11:55:26.858Z,37.02
2023-05-22T11:57:55.574Z,37.46
2023-05-22T12:00:22.990Z,37.62
2023-05-22T12:02:50.691Z,38.10
2023-05-22T12:05:21.425Z,37.08
2023-05-22T12:07:48.878Z,37.23
2023-05-22T12:10:16.521Z,37.98
2023-05-22T12:12:44.243Z,38.36
2023-05-22T12:15:12.003Z,37.37
2023-05-22T12:17:40.073Z,37.76
2023-05-22T12:20:07.968Z,38.59
2023-05-22T12:22:41.087Z,37.53
2023-05-22T12:25:17.637Z,37.72
2023-05-22T12:27:46.075Z,37.50
2023-05-22T12:30:14.678Z,36.94
2023-05-22T12:32:47.524Z,37.15
2023-05-22T12:35:16.722Z,36.76
2023-05-22T12:37:51.761Z,37.30
2023-05-22T12:40:19.450Z,37.68
2023-05-22T12:42:47.958Z,37.91
2023-05-22T12:45:17.726Z,36.73
2023-05-22T12:47:45.276Z,36.77
2023-05-22T12:50:12.845Z,37.66
2023-05-22T12:52:40.368Z,37.29
2023-05-22T12:55:09.562Z,37.13
2023-05-22T12:57:37.000Z,35.92
2023-05-22T13:00:06.021Z,37.20
2023-05-22T13:02:34.068Z,36.49
2023-05-22T13:05:01.478Z,36.43
2023-05-22T13:07:29.024Z,37.17
2023-05-22T13:09:56.446Z,36.07
2023-05-22T13:12:23.912Z,35.13
2023-05-22T13:14:51.253Z,36.17
2023-05-22T13:17:18.693Z,36.10
2023-05-22T13:19:46.007Z,36.04
2023-05-22T13:22:14.836Z,34.68
2023-05-22T13:24:42.168Z,35.45
2023-05-22T13:27:09.796Z,35.56
2023-05-22T13:29:37.195Z,34.75
2023-05-22T13:32:06.957Z,34.72
2023-05-22T13:34:34.585Z,34.69
2023-05-22T13:37:02.422Z,35.53
2023-05-22T13:39:33.512Z,34.93
2023-05-22T13:42:01.472Z,34.52
2023-05-22T13:44:28.820Z,33.56
2023-05-22T13:46:56.354Z,34.71
2023-05-22T13:49:23.716Z,34.36
2023-05-22T13:51:51.080Z,33.70
2023-05-22T13:54:18.538Z,33.48
2023-05-22T13:56:46.018Z,32.75
2023-05-22T13:59:13.373Z,34.59
2023-05-22T14:01:41.623Z,35.50
2023-05-22T14:04:09.068Z,37.13
2023-05-22T14:06:36.680Z,39.32
2023-05-22T14:09:07.938Z,40.57
2023-05-22T14:11:35.708Z,42.16
2023-05-22T14:14:03.252Z,43.32
2023-05-22T14:16:30.744Z,43.31
2023-05-22T14:19:00.317Z,43.41
2023-05-22T14:21:27.885Z,43.65
2023-05-22T14:23:55.347Z,43.64
2023-05-22T14:26:24.268Z,43.78
2023-05-22T14:28:52.937Z,44.53
2023-05-22T14:31:21.318Z,43.21
2023-05-22T14:33:49.263Z,44.19
2023-05-22T14:36:17.885Z,41.32
2023-05-22T14:38:45.310Z,42.27
2023-05-22T14:41:13.038Z,41.27
2023-05-22T14:43:40.493Z,40.10
2023-05-22T14:46:07.933Z,40.80
2023-05-22T14:48:35.402Z,41.43
2023-05-22T14:51:02.718Z,41.41
2023-05-22T14:53:30.327Z,41.67
2023-05-22T14:55:57.759Z,41.75
2023-05-22T14:58:25.129Z,41.88
2023-05-22T15:00:52.609Z,41.64
2023-05-22T15:03:21.542Z,42.48
2023-05-22T15:05:49.069Z,42.50
2023-05-22T15:08:19.071Z,43.77
2023-05-22T15:10:46.679Z,44.14
2023-05-22T15:13:14.597Z,44.42
2023-05-22T15:15:42.253Z,45.03
2023-05-22T15:18:09.816Z,45.90
2023-05-22T15:20:37.203Z,45.22
2023-05-22T15:23:05.911Z,44.77
2023-05-22T15:25:36.458Z,44.42
2023-05-22T15:28:06.376Z,44.94
2023-05-22T15:30:39.253Z,44.70
2023-05-22T15:33:07.159Z,45.11
2023-05-22T15:35:34.618Z,44.15
2023-05-22T15:38:03.143Z,42.57
2023-05-22T15:40:31.046Z,43.82
2023-05-22T15:43:01.658Z,43.38
2023-05-22T15:45:29.154Z,43.44
2023-05-22T15:47:56.892Z,45.45
2023-05-22T15:50:24.354Z,44.62
2023-05-22T15:52:52.063Z,44.93
2023-05-22T15:55:19.564Z,45.40
2023-05-22T15:57:46.969Z,45.49
2023-05-22T16:00:16.075Z,44.84
2023-05-22T16:02:45.236Z,46.09
2023-05-22T16:05:12.769Z,44.62
2023-05-22T16:07:40.173Z,46.01
2023-05-22T16:10:08.149Z,44.73
2023-05-22T16:12:35.726Z,44.44
2023-05-22T16:15:06.540Z,44.88
2023-05-22T16:17:34.496Z,45.80
2023-05-22T16:20:02.309Z,47.14
2023-05-22T16:22:44.169Z,47.15
2023-05-22T16:25:17.006Z,45.22
2023-05-22T16:27:44.535Z,45.96
2023-05-22T16:30:12.342Z,45.64
2023-05-22T16:32:40.094Z,45.50
2023-05-22T16:35:07.827Z,45.72
2023-05-22T16:37:36.079Z,45.73
2023-05-22T16:40:04.923Z,45.93
2023-05-22T16:42:32.357Z,46.28
2023-05-22T16:44:59.817Z,46.66
2023-05-22T16:47:27.280Z,46.81
2023-05-22T16:49:54.663Z,47.59
2023-05-22T16:52:23.617Z,45.81
2023-05-22T16:54:51.028Z,45.03
2023-05-22T16:57:18.742Z,45.25
2023-05-22T16:59:46.287Z,45.93
2023-05-22T17:02:13.940Z,45.55
2023-05-22T17:04:41.326Z,45.19
2023-05-22T17:07:08.766Z,45.73
2023-05-22T17:09:36.263Z,44.88
2023-05-22T17:12:03.911Z,45.33
2023-05-22T17:14:33.505Z,46.17
2023-05-22T17:17:00.956Z,46.62
2023-05-22T17:19:28.467Z,47.21
2023-05-22T17:21:56.755Z,47.05
2023-05-22T17:24:24.682Z,45.94
2023-05-22T17:26:52.506Z,45.68
2023-05-22T17:29:19.951Z,46.85
2023-05-22T17:31:47.800Z,46.58
2023-05-22T17:34:15.228Z,46.34
2023-05-22T17:36:44.763Z,45.77
2023-05-22T17:39:12.671Z,45.11
2023-05-22T17:41:40.239Z,45.74
2023-05-22T17:44:07.661Z,46.19
2023-05-22T17:46:35.485Z,46.37
2023-05-22T17:49:02.993Z,46.57
2023-05-22T17:51:30.726Z,46.61
2023-05-22T17:53:59.094Z,46.63
2023-05-22T17:56:26.738Z,47.07
2023-05-22T17:58:54.179Z,47.67
2023-05-22T18:01:21.593Z,48.01
2023-05-22T18:03:49.270Z,47.74
2023-05-22T18:06:16.843Z,46.82
2023-05-22T18:08:44.350Z,46.18
2023-05-22T18:11:11.771Z,46.09
2023-05-22T18:13:41.810Z,46.98
2023-05-22T18:16:09.269Z,47.22
2023-05-22T18:18:36.717Z,47.78
2023-05-22T18:21:04.376Z,47.94
2023-05-22T18:23:31.810Z,47.98
2023-05-22T18:25:59.229Z,48.30
2023-05-22T18:28:27.378Z,48.10
2023-05-22T18:30:54.989Z,48.51
2023-05-22T18:33:24.720Z,48.24
2023-05-22T18:35:52.661Z,48.62
2023-05-22T18:38:22.121Z,48.59
2023-05-22T18:40:49.720Z,48.71
2023-05-22T18:43:17.184Z,49.25
2023-05-22T18:45:44.579Z,49.28
2023-05-22T18:48:12.052Z,49.24
2023-05-22T18:50:39.834Z,49.71
2023-05-22T18:53:07.346Z,50.20
2023-05-22T18:55:34.793Z,50.37
2023-05-22T18:58:02.322Z,51.01
2023-05-22T19:00:30.772Z,50.88
2023-05-22T19:02:58.268Z,51.03
2023-05-22T19:05:26.264Z,50.67
2023-05-22T19:07:53.851Z,50.72
2023-05-22T19:10:21.283Z,51.26
2023-05-22T19:12:48.692Z,51.41
2023-05-22T19:15:16.307Z,51.94
2023-05-22T19:17:43.837Z,52.38
2023-05-22T19:20:12.260Z,52.51
2023-05-22T19:22:39.893Z,53.58
2023-05-22T19:25:08.020Z,53.70
2023-05-22T19:27:37.311Z,53.92
2023-05-22T19:30:10.563Z,54.55
2023-05-22T19:32:37.948Z,54.86
2023-05-22T19:35:05.839Z,55.29
2023-05-22T19:37:33.302Z,55.20
2023-05-22T19:40:01.144Z,55.58
2023-05-22T19:42:28.898Z,55.99
2023-05-22T19:44:56.400Z,56.56
2023-05-22T19:47:23.916Z,56.91
2023-05-22T19:49:51.355Z,57.49
2023-05-22T19:52:18.885Z,57.73
2023-05-22T19:54:46.490Z,58.76
2023-05-22T19:57:13.951Z,58.40
2023-05-22T19:59:41.610Z,58.13
2023-05-22T20:02:09.207Z,58.47
2023-05-22T20:04:39.042Z,58.29
2023-05-22T20:07:07.329Z,57.65
2023-05-22T20:09:34.939Z,58.03
2023-05-22T20:12:02.501Z,58.79
2023-05-22T20:14:30.138Z,59.47
2023-05-22T20:16:59.180Z,59.48
2023-05-22T20:19:27.665Z,59.69
2023-05-22T20:21:56.414Z,59.89
2023-05-22T20:24:25.333Z,60.05
2023-05-22T20:26:53.032Z,60.36
2023-05-22T20:29:20.620Z,59.34
2023-05-22T20:31:48.364Z,59.31
2023-05-22T20:34:15.805Z,59.17
2023-05-22T20:36:44.946Z,59.07
2023-05-22T20:39:12.529Z,59.00
2023-05-22T20:41:40.013Z,59.29
2023-05-22T20:44:07.839Z,59.55
2023-05-22T20:46:35.582Z,59.54
2023-05-22T20:49:04.865Z,59.77
2023-05-22T20:51:32.721Z,59.84
2023-05-22T20:54:00.885Z,59.24
2023-05-22T20:56:28.984Z,59.99
2023-05-22T20:58:59.428Z,59.96
2023-05-22T21:01:29.512Z,60.71
2023-05-22T21:03:57.027Z,60.75
2023-05-22T21:06:24.505Z,59.97
2023-05-22T21:08:53.995Z,60.36
2023-05-22T21:11:21.745Z,60.78
2023-05-22T21:13:49.139Z,61.05
2023-05-22T21:16:16.667Z,61.38
2023-05-22T21:18:44.199Z,63.32
2023-05-22T21:21:11.636Z,66.20
2023-05-22T21:23:39.050Z,66.32
2023-05-22T21:26:06.436Z,65.94
2023-05-22T21:28:33.979Z,66.30
2023-05-22T21:31:01.452Z,65.64
2023-05-22T21:33:28.834Z,66.29
2023-05-22T21:35:56.478Z,66.31
2023-05-22T21:38:23.839Z,66.68
2023-05-22T21:40:51.230Z,66.90
2023-05-22T21:43:18.652Z,66.76
2023-05-22T21:45:46.082Z,66.68
2023-05-22T21:48:13.437Z,66.46
2023-05-22T21:50:41.009Z,66.31
2023-05-22T21:53:08.619Z,66.62
2023-05-22T21:55:36.274Z,66.47
2023-05-22T21:58:03.700Z,66.86
2023-05-22T22:00:31.124Z,66.56
2023-05-22T22:02:58.612Z,66.04
2023-05-22T22:05:27.598Z,66.16
2023-05-22T22:07:55.056Z,66.41
2023-05-22T22:10:22.763Z,65.74
2023-05-22T22:12:50.140Z,66.23
2023-05-22T22:15:17.559Z,67.07
2023-05-22T22:17:45.306Z,67.42
2023-05-22T22:20:12.855Z,67.27
2023-05-22T22:22:40.805Z,66.89
2023-05-22T22:25:08.529Z,67.42
2023-05-22T22:27:36.902Z,67.07
2023-05-22T22:30:04.937Z,66.96
2023-05-22T22:32:32.365Z,67.67
2023-05-22T22:34:59.862Z,68.36
2023-05-22T22:37:27.256Z,68.53
2023-05-22T22:39:54.613Z,69.07
2023-05-22T22:42:22.003Z,69.08
2023-05-22T22:44:49.406Z,69.52
2023-05-22T22:47:17.333Z,69.58
2023-05-22T22:49:44.733Z,69.85
2023-05-22T22:52:12.098Z,70.26
2023-05-22T22:54:39.559Z,70.83
2023-05-22T22:57:07.824Z,70.46
2023-05-22T22:59:37.909Z,70.51
2023-05-22T23:02:05.622Z,69.83
2023-05-22T23:04:33.255Z,70.23
2023-05-22T23:07:00.775Z,69.80
2023-05-22T23:09:28.237Z,70.25
2023-05-22T23:11:55.704Z,70.64
2023-05-22T23:14:24.802Z,71.01
2023-05-22T23:16:52.195Z,70.89
2023-05-22T23:19:19.696Z,71.21
2023-05-22T23:21:47.083Z,71.10
2023-05-22T23:24:14.555Z,71.71
2023-05-22T23:26:41.936Z,71.38
2023-05-22T23:29:09.326Z,70.73
2023-05-22T23:31:37.121Z,70.41
2023-05-22T23:34:04.517Z,70.12
2023-05-22T23:36:32.656Z,69.99
2023-05-22T23:39:00.189Z,70.00
2023-05-22T23:41:27.590Z,70.32
2023-05-22T23:43:54.959Z,70.30
2023-05-22T23:46:24.420Z,70.65
2023-05-22T23:48:52.162Z,70.47
2023-05-22T23:51:19.818Z,70.90
2023-05-22T23:53:47.124Z,71.13
2023-05-22T23:56:14.474Z,71.26
2023-05-22T23:58:41.851Z,71.44
